LUKK/KIV METAR and TAF weather

Enter ICAO airport designator
Station Type Date Time Source
LUKK METAR 2019/02/23 23:00 UTC NOAA

LUKK 232300Z 34007KT CAVOK M05/M10 Q1037 R08/190095 NOSIG


Station Type Date Time Source
LUKK Decoded METAR 2019/02/23 23:00 UTC NOAA

Chisinau International Airport, Moldova (LUKK) 46-55-40N 028-55-51E
Feb 23, 2019 - 06:00 PM EST / 2019.02.23 2300 UTC
Wind: from the NNW (340 degrees) at 8 MPH (7 KT):0
Visibility: greater than 7 mile(s):0
Temperature: 23 F (-5 C)
Windchill: 14 F (-10 C):1
Dew Point: 14 F (-10 C)
Relative Humidity: 67%
Pressure (altimeter): 30.62 in. Hg (1037 hPa)
ob: LUKK 232300Z 34007KT CAVOK M05/M10 Q1037 R08/190095 NOSIG
cycle: 23

Station Type Date Time Source
LUKK TAF 2019/02/23 18:24 UTC NOAA

TAF TAF LUKK 231720Z 2318/2418 35010KT 9999 SCT020
TEMPO 2318/2320 5000 SN BKN015 PROB40
TEMPO 2410/2415 BKN015 SCT025CB


Example: see airport list